createdAt,value
2019-05-26T00:00:41.861Z,32.55
2019-05-26T00:03:16.071Z,32.55
2019-05-26T00:05:48.549Z,32.48
2019-05-26T00:08:21.224Z,32.28
2019-05-26T00:10:53.595Z,31.52
2019-05-26T00:13:25.966Z,31.57
2019-05-26T00:15:58.239Z,32.63
2019-05-26T00:18:33.301Z,33.90
2019-05-26T00:21:04.438Z,33.50
2019-05-26T00:23:36.792Z,33.65
2019-05-26T00:26:09.265Z,33.50
2019-05-26T00:28:41.646Z,33.45
2019-05-26T00:31:14.216Z,31.40
2019-05-26T00:33:46.689Z,29.95
2019-05-26T00:36:19.063Z,28.87
2019-05-26T00:38:51.743Z,30.43
2019-05-26T00:41:24.216Z,31.05
2019-05-26T00:43:56.592Z,30.77
2019-05-26T00:46:29.015Z,29.92
2019-05-26T00:49:01.640Z,29.92
2019-05-26T00:51:34.012Z,29.95
2019-05-26T00:54:06.792Z,30.08
2019-05-26T00:56:39.163Z,31.00
2019-05-26T00:59:11.848Z,30.20
2019-05-26T01:01:44.216Z,30.95
2019-05-26T01:04:16.800Z,30.40
2019-05-26T01:06:49.268Z,30.08
2019-05-26T01:09:21.643Z,31.45
2019-05-26T01:11:53.811Z,29.57
2019-05-26T01:14:26.175Z,31.02
2019-05-26T01:16:58.547Z,29.05
2019-05-26T01:19:30.720Z,29.05
2019-05-26T01:22:03.293Z,28.55
2019-05-26T01:24:35.978Z,28.87
2019-05-26T01:27:08.248Z,29.12
2019-05-26T01:29:40.821Z,28.05
2019-05-26T01:32:13.297Z,26.62
2019-05-26T01:34:45.870Z,27.67
2019-05-26T01:37:19.062Z,26.15
2019-05-26T01:39:51.654Z,25.60
2019-05-26T01:42:23.903Z,25.57
2019-05-26T01:44:56.489Z,23.20
2019-05-26T01:47:28.860Z,22.42
2019-05-26T01:50:01.230Z,21.95
2019-05-26T01:52:33.403Z,21.97
2019-05-26T01:55:06.843Z,22.07
2019-05-26T01:57:39.374Z,21.42
2019-05-26T02:00:12.047Z,21.02
2019-05-26T02:02:44.625Z,20.40
2019-05-26T02:05:17.104Z,21.30
2019-05-26T02:07:49.673Z,22.20
2019-05-26T02:10:22.560Z,21.65
2019-05-26T02:12:54.722Z,21.55
2019-05-26T02:15:28.025Z,22.77
2019-05-26T02:18:00.136Z,21.50
2019-05-26T02:20:32.461Z,20.23
2019-05-26T02:23:05.239Z,21.62
2019-05-26T02:25:37.508Z,22.13
2019-05-26T02:28:09.777Z,22.60
2019-05-26T02:30:41.959Z,22.37
2019-05-26T02:33:14.420Z,21.45
2019-05-26T02:35:46.800Z,21.60
2019-05-26T02:38:19.068Z,19.82
2019-05-26T02:40:51.847Z,20.52
2019-05-26T02:43:24.417Z,22.33
2019-05-26T02:45:57.108Z,21.82
2019-05-26T02:48:29.398Z,23.22
2019-05-26T02:51:01.635Z,24.80
2019-05-26T02:53:34.115Z,24.43
2019-05-26T02:56:06.699Z,26.62
2019-05-26T02:58:39.072Z,28.38
2019-05-26T03:01:11.843Z,29.42
2019-05-26T03:03:44.328Z,28.57
2019-05-26T03:06:16.794Z,28.67
2019-05-26T03:08:49.064Z,27.70
2019-05-26T03:11:21.650Z,27.35
2019-05-26T03:13:54.836Z,25.82
2019-05-26T03:16:27.133Z,26.20
2019-05-26T03:18:59.577Z,25.35
2019-05-26T03:21:33.224Z,25.43
2019-05-26T03:24:05.448Z,27.17
2019-05-26T03:26:38.124Z,26.82
2019-05-26T03:29:10.510Z,26.85
2019-05-26T03:31:43.074Z,27.85
2019-05-26T03:34:15.756Z,27.63
2019-05-26T03:36:47.926Z,26.70
2019-05-26T03:39:20.395Z,27.87
2019-05-26T03:41:52.890Z,28.10
2019-05-26T03:44:25.219Z,25.95
2019-05-26T03:46:58.126Z,24.57
2019-05-26T03:49:30.617Z,25.08
2019-05-26T03:52:02.789Z,22.37
2019-05-26T03:54:35.140Z,20.52
2019-05-26T03:57:07.713Z,19.62
2019-05-26T03:59:40.094Z,21.42
2019-05-26T04:02:13.889Z,21.80
2019-05-26T04:04:46.471Z,21.07
2019-05-26T04:07:19.241Z,22.20
2019-05-26T04:10:04.073Z,22.85
2019-05-26T04:12:25.431Z,23.30
2019-05-26T04:14:58.517Z,23.12
2019-05-26T04:17:30.896Z,22.35
2019-05-26T04:20:03.779Z,22.40
2019-05-26T04:22:36.047Z,18.77
2019-05-26T04:25:08.524Z,16.73
2019-05-26T04:27:41.096Z,15.83
2019-05-26T04:30:13.165Z,15.55
2019-05-26T04:32:45.958Z,18.60
2019-05-26T04:35:18.319Z,13.78
2019-05-26T04:37:50.910Z,13.55
2019-05-26T04:40:27.143Z,11.45
2019-05-26T04:42:57.374Z,12.10
2019-05-26T04:45:29.613Z,11.50
2019-05-26T04:48:01.930Z,11.22
2019-05-26T04:50:34.097Z,11.88
2019-05-26T04:53:07.443Z,11.40
2019-05-26T04:55:39.667Z,10.93
2019-05-26T04:58:12.322Z,10.03
2019-05-26T05:00:44.647Z,9.83
2019-05-26T05:03:16.936Z,8.43
2019-05-26T05:05:49.426Z,7.77
2019-05-26T05:08:21.511Z,7.35
2019-05-26T05:10:53.719Z,6.70
2019-05-26T05:13:25.977Z,7.05
2019-05-26T05:15:57.912Z,7.50
2019-05-26T05:18:30.033Z,6.65
2019-05-26T05:21:02.420Z,6.50
2019-05-26T05:23:34.517Z,6.78
2019-05-26T05:26:06.907Z,6.62
2019-05-26T05:28:39.234Z,6.60
2019-05-26T05:31:12.132Z,6.50
2019-05-26T05:33:44.633Z,6.70
2019-05-26T05:36:17.088Z,7.40
2019-05-26T05:38:49.373Z,6.40
2019-05-26T05:41:21.964Z,6.27
2019-05-26T05:43:54.688Z,6.30
2019-05-26T05:46:26.730Z,6.53
2019-05-26T05:48:59.368Z,6.97
2019-05-26T05:51:32.572Z,6.47
2019-05-26T05:54:05.084Z,6.90
2019-05-26T05:56:37.295Z,7.00
2019-05-26T05:59:09.900Z,7.00
2019-05-26T06:01:42.348Z,6.67
2019-05-26T06:04:14.722Z,6.90
2019-05-26T06:06:47.102Z,6.70
2019-05-26T06:09:19.470Z,6.28
2019-05-26T06:11:56.453Z,7.65
2019-05-26T06:14:25.803Z,6.17
2019-05-26T06:16:57.929Z,6.53
2019-05-26T06:19:30.293Z,5.30
2019-05-26T06:22:02.373Z,5.72
2019-05-26T06:24:34.936Z,5.85
2019-05-26T06:27:08.337Z,7.53
2019-05-26T06:29:40.722Z,7.50
2019-05-26T06:32:13.494Z,7.20
2019-05-26T06:34:46.372Z,5.78
2019-05-26T06:37:18.525Z,6.00
2019-05-26T06:39:50.936Z,5.70
2019-05-26T06:42:23.093Z,5.28
2019-05-26T06:44:55.677Z,5.00
2019-05-26T06:47:28.139Z,4.28
2019-05-26T06:50:00.390Z,4.33
2019-05-26T06:52:32.358Z,4.90
2019-05-26T06:55:05.801Z,5.67
2019-05-26T06:57:39.254Z,5.55
2019-05-26T07:02:43.798Z,6.33
2019-05-26T07:05:18.502Z,6.15
2019-05-26T07:07:52.156Z,5.20
2019-05-26T07:10:24.391Z,4.53
2019-05-26T07:12:56.570Z,3.70
2019-05-26T07:15:29.132Z,3.50
2019-05-26T07:18:01.215Z,4.70
2019-05-26T07:20:34.597Z,4.80
2019-05-26T07:23:08.297Z,3.12
2019-05-26T07:25:41.184Z,3.17
2019-05-26T07:28:13.558Z,3.00
2019-05-26T07:30:46.021Z,2.83
2019-05-26T07:33:18.710Z,2.95
2019-05-26T07:35:51.349Z,3.20
2019-05-26T07:38:24.716Z,3.45
2019-05-26T07:40:57.241Z,3.08
2019-05-26T07:43:29.313Z,2.77
2019-05-26T07:46:02.020Z,2.47
2019-05-26T07:48:35.978Z,2.05
2019-05-26T07:51:08.377Z,2.62
2019-05-26T07:53:40.342Z,2.67
2019-05-26T07:56:13.069Z,2.35
2019-05-26T07:58:45.216Z,2.52
2019-05-26T08:01:17.999Z,2.40
2019-05-26T08:03:50.053Z,2.50
2019-05-26T08:06:23.648Z,2.25
2019-05-26T08:08:56.011Z,4.33
2019-05-26T08:11:29.127Z,2.77
2019-05-26T08:14:01.464Z,2.40
2019-05-26T08:16:33.948Z,2.05
2019-05-26T08:19:07.372Z,2.30
2019-05-26T08:21:39.911Z,2.77
2019-05-26T08:24:12.700Z,2.80
2019-05-26T08:26:45.235Z,4.20
2019-05-26T08:31:48.894Z,3.85
2019-05-26T08:34:21.187Z,5.08
2019-05-26T08:36:53.654Z,3.72
2019-05-26T08:39:26.831Z,6.00
2019-05-26T08:41:59.507Z,5.42
2019-05-26T08:44:32.011Z,15.18
2019-05-26T08:47:04.944Z,4.97
2019-05-26T08:49:37.797Z,3.67
2019-05-26T08:52:10.019Z,3.80
2019-05-26T08:54:42.494Z,6.42
2019-05-26T08:57:15.623Z,3.00
2019-05-26T08:59:47.794Z,2.30
2019-05-26T09:02:20.871Z,7.25
2019-05-26T09:04:53.209Z,3.98
2019-05-26T09:07:25.888Z,5.65
2019-05-26T09:09:58.372Z,3.35
2019-05-26T09:12:30.839Z,3.37
2019-05-26T09:15:04.859Z,3.37
2019-05-26T09:17:38.660Z,3.30
2019-05-26T09:20:11.950Z,5.40
2019-05-26T09:22:46.706Z,4.08
2019-05-26T09:25:19.475Z,4.22
2019-05-26T09:27:51.850Z,3.98
2019-05-26T09:30:24.167Z,5.07
2019-05-26T09:32:56.708Z,3.63
2019-05-26T09:35:28.860Z,4.20
2019-05-26T09:38:01.913Z,4.65
2019-05-26T09:40:34.213Z,4.95
2019-05-26T09:43:15.734Z,6.87
2019-05-26T09:45:41.508Z,6.35
2019-05-26T09:48:14.495Z,6.80
2019-05-26T09:50:46.760Z,6.60
2019-05-26T09:53:18.918Z,7.30
2019-05-26T09:55:51.274Z,7.25
2019-05-26T09:58:23.810Z,7.22
2019-05-26T10:00:56.159Z,7.30
2019-05-26T10:03:28.523Z,6.60
2019-05-26T10:06:00.910Z,6.47
2019-05-26T10:08:33.787Z,6.40
2019-05-26T10:11:06.597Z,5.87
2019-05-26T10:13:39.144Z,5.00
2019-05-26T10:16:11.432Z,5.70
2019-05-26T10:18:43.799Z,5.28
2019-05-26T10:21:16.223Z,5.37
2019-05-26T10:23:52.913Z,4.60
2019-05-26T10:26:22.943Z,4.28
2019-05-26T10:28:55.228Z,4.37
2019-05-26T10:31:27.282Z,4.12
2019-05-26T10:34:01.364Z,4.28
2019-05-26T10:36:33.766Z,4.60
2019-05-26T10:39:08.350Z,4.28
2019-05-26T10:41:40.672Z,4.08
2019-05-26T10:44:13.559Z,4.40
2019-05-26T10:46:46.200Z,4.35
2019-05-26T10:49:18.516Z,4.03
2019-05-26T10:51:50.774Z,3.80
2019-05-26T10:54:23.410Z,3.62
2019-05-26T10:56:55.882Z,3.33
2019-05-26T10:59:28.470Z,4.15
2019-05-26T11:02:00.769Z,3.72
2019-05-26T11:04:33.673Z,3.15
2019-05-26T11:07:07.343Z,3.80
2019-05-26T11:09:40.150Z,3.40
2019-05-26T11:12:12.689Z,3.20
2019-05-26T11:14:45.384Z,3.92
2019-05-26T11:17:17.765Z,4.15
2019-05-26T11:19:50.580Z,3.40
2019-05-26T11:22:23.047Z,3.50
2019-05-26T11:24:55.929Z,3.40
2019-05-26T11:27:28.341Z,3.52
2019-05-26T11:30:01.068Z,3.20
2019-05-26T11:32:34.253Z,3.42
2019-05-26T11:35:07.340Z,3.20
2019-05-26T11:37:40.863Z,3.77
2019-05-26T11:42:45.344Z,4.00
2019-05-26T11:45:19.174Z,4.37
2019-05-26T11:47:51.722Z,3.90
2019-05-26T11:50:24.109Z,4.08
2019-05-26T11:52:56.401Z,4.22
2019-05-26T11:55:29.102Z,4.30
2019-05-26T11:58:01.258Z,4.22
2019-05-26T12:00:33.822Z,4.53
2019-05-26T12:03:05.904Z,4.28
2019-05-26T12:08:11.272Z,4.33
2019-05-26T12:10:43.716Z,4.60
2019-05-26T12:13:16.305Z,5.95
2019-05-26T12:15:49.898Z,4.60
2019-05-26T12:18:22.371Z,3.98
2019-05-26T12:20:54.746Z,4.33
2019-05-26T12:23:27.110Z,4.17
2019-05-26T12:25:59.629Z,4.62
2019-05-26T12:28:31.744Z,4.55
2019-05-26T12:31:04.406Z,4.67
2019-05-26T12:33:36.826Z,6.70
2019-05-26T12:36:09.335Z,4.70
2019-05-26T12:38:53.848Z,4.62
2019-05-26T12:41:26.306Z,5.58
2019-05-26T13:58:48.369Z,13.85
2019-05-26T14:01:22.016Z,10.82
2019-05-26T14:03:54.841Z,9.33
2019-05-26T14:06:27.353Z,9.60
2019-05-26T14:09:02.352Z,9.65
2019-05-26T14:11:35.938Z,10.38
2019-05-26T14:14:09.028Z,9.63
2019-05-26T14:16:41.186Z,10.05
2019-05-26T14:19:14.172Z,9.43
2019-05-26T14:21:46.460Z,10.45
2019-05-26T14:24:19.156Z,9.63
2019-05-26T14:26:51.809Z,9.25
2019-05-26T14:29:25.494Z,8.38
2019-05-26T14:34:29.837Z,8.08
2019-05-26T14:37:02.247Z,8.88
2019-05-26T14:39:35.224Z,8.18
2019-05-26T14:42:12.688Z,7.72
2019-05-26T14:44:45.485Z,7.83
2019-05-26T14:47:18.341Z,7.13
2019-05-26T14:49:50.810Z,8.53
2019-05-26T14:52:24.229Z,6.80
2019-05-26T14:54:56.800Z,6.70
2019-05-26T14:57:31.064Z,6.40
2019-05-26T15:00:05.223Z,6.30
2019-05-26T15:02:37.503Z,6.42
2019-05-26T15:05:11.313Z,6.62
2019-05-26T15:07:43.578Z,6.15
2019-05-26T15:10:16.251Z,6.30
2019-05-26T15:12:49.008Z,7.10
2019-05-26T15:15:21.886Z,6.20
2019-05-26T15:17:54.438Z,6.63
2019-05-26T15:20:27.292Z,6.28
2019-05-26T15:23:00.845Z,6.30
2019-05-26T15:25:33.933Z,6.20
2019-05-26T15:28:07.838Z,7.12
2019-05-26T15:30:40.478Z,6.00
2019-05-26T15:33:12.826Z,5.90
2019-05-26T15:35:45.665Z,6.60
2019-05-26T15:38:17.711Z,5.92
2019-05-26T15:40:50.179Z,5.80
2019-05-26T15:43:22.256Z,6.55
2019-05-26T15:45:54.783Z,5.92
2019-05-26T15:48:27.076Z,6.70
2019-05-26T15:51:00.994Z,6.72
2019-05-26T15:53:33.576Z,5.90
2019-05-26T15:56:06.642Z,6.40
2019-05-26T15:58:39.229Z,6.97
2019-05-26T16:01:14.191Z,7.28
2019-05-26T16:03:46.741Z,6.97
2019-05-26T16:06:20.122Z,7.47
2019-05-26T16:08:53.827Z,6.90
2019-05-26T16:11:26.095Z,7.33
2019-05-26T16:13:58.261Z,8.28
2019-05-26T16:16:40.578Z,7.83
2019-05-26T16:19:05.619Z,7.55
2019-05-26T16:21:38.563Z,7.97
2019-05-26T16:24:10.933Z,9.00
2019-05-26T16:26:43.838Z,8.73
2019-05-26T16:29:16.487Z,8.40
2019-05-26T16:31:48.682Z,9.35
2019-05-26T16:34:21.341Z,10.03
2019-05-26T16:36:54.044Z,9.43
2019-05-26T16:39:36.679Z,9.70
2019-05-26T16:42:01.076Z,9.50
2019-05-26T16:44:35.873Z,10.17
2019-05-26T16:47:09.747Z,11.00
2019-05-26T16:49:42.417Z,12.15
2019-05-26T16:52:15.288Z,11.53
2019-05-26T16:54:47.905Z,11.90
2019-05-26T16:57:20.497Z,11.05
2019-05-26T16:59:52.941Z,11.70
2019-05-26T17:04:59.254Z,11.05
2019-05-26T17:07:31.783Z,9.70
2019-05-26T17:10:07.255Z,9.98
2019-05-26T17:12:41.469Z,8.58
2019-05-26T17:15:14.056Z,9.23
2019-05-26T17:17:46.600Z,8.50
2019-05-26T17:20:19.075Z,9.03
2019-05-26T17:22:51.973Z,8.10
2019-05-26T17:25:24.755Z,7.75
2019-05-26T17:27:57.227Z,8.33
2019-05-26T17:30:31.192Z,8.50
2019-05-26T17:33:03.861Z,8.43
2019-05-26T17:35:36.109Z,8.38
2019-05-26T17:38:08.669Z,9.05
2019-05-26T17:40:43.519Z,9.13
2019-05-26T17:43:16.280Z,9.15
2019-05-26T17:45:48.831Z,9.30
2019-05-26T17:48:21.318Z,11.60
2019-05-26T17:50:54.440Z,11.97
2019-05-26T17:53:26.979Z,10.70
2019-05-26T17:55:59.583Z,11.12
2019-05-26T17:58:32.445Z,9.95
2019-05-26T18:01:08.169Z,9.40
2019-05-26T18:03:41.058Z,20.92
2019-05-26T18:06:13.982Z,13.75
2019-05-26T18:08:46.892Z,13.50
2019-05-26T18:11:20.676Z,13.98
2019-05-26T18:13:54.716Z,12.15
2019-05-26T18:16:27.070Z,10.65
2019-05-26T18:19:00.031Z,11.80
2019-05-26T18:21:32.508Z,11.30
2019-05-26T18:24:04.884Z,12.65
2019-05-26T18:26:37.255Z,11.97
2019-05-26T18:29:09.925Z,12.55
2019-05-26T18:31:42.706Z,12.35
2019-05-26T18:34:15.714Z,12.73
2019-05-26T18:36:48.064Z,12.77
2019-05-26T18:39:21.871Z,10.82
2019-05-26T18:41:54.447Z,11.10
2019-05-26T18:44:27.216Z,11.30
2019-05-26T18:46:59.609Z,12.80
2019-05-26T18:49:34.153Z,13.48
2019-05-26T18:52:06.522Z,14.47
2019-05-26T18:54:39.417Z,14.77
2019-05-26T18:59:44.662Z,17.07
2019-05-26T19:02:17.198Z,19.02
2019-05-26T19:04:49.979Z,21.82
2019-05-26T19:07:22.357Z,26.27
2019-05-26T19:09:55.143Z,27.22
2019-05-26T19:12:27.410Z,29.35
2019-05-26T19:15:00.221Z,31.15
2019-05-26T19:17:32.876Z,34.50
2019-05-26T19:20:16.190Z,34.30
2019-05-26T19:22:43.364Z,35.43
2019-05-26T19:25:16.042Z,35.10
2019-05-26T19:27:49.646Z,35.05
2019-05-26T19:30:22.423Z,36.42
2019-05-26T19:32:59.580Z,34.48
2019-05-26T19:35:31.976Z,37.53
2019-05-26T19:38:04.546Z,37.08
2019-05-26T19:40:37.336Z,34.35
2019-05-26T19:43:09.615Z,33.25
2019-05-26T19:45:42.222Z,28.65
2019-05-26T19:48:14.757Z,39.08
2019-05-26T19:50:47.176Z,30.20
2019-05-26T19:53:19.388Z,30.55
2019-05-26T19:55:51.853Z,31.02
2019-05-26T19:58:24.127Z,29.67
2019-05-26T20:00:56.604Z,32.85
2019-05-26T20:03:28.859Z,32.13
2019-05-26T20:06:02.405Z,31.60
2019-05-26T20:08:35.130Z,27.58
2019-05-26T20:11:07.539Z,28.10
2019-05-26T20:13:39.765Z,23.25
2019-05-26T20:16:12.225Z,23.45
2019-05-26T20:18:44.556Z,22.95
2019-05-26T20:21:17.052Z,24.50
2019-05-26T20:23:49.278Z,21.90
2019-05-26T20:26:21.612Z,22.50
2019-05-26T20:28:53.897Z,20.17
2019-05-26T20:31:26.270Z,30.85
2019-05-26T20:33:58.441Z,23.92
2019-05-26T20:36:31.005Z,20.97
2019-05-26T20:39:03.295Z,20.85
2019-05-26T20:41:36.802Z,19.12
2019-05-26T20:44:09.072Z,25.55
2019-05-26T20:46:41.456Z,18.70
2019-05-26T20:49:13.732Z,18.02
2019-05-26T20:51:46.127Z,16.20
2019-05-26T20:54:18.669Z,17.00
2019-05-26T20:56:52.942Z,16.50
2019-05-26T20:59:25.158Z,16.77
2019-05-26T21:01:57.716Z,16.90
2019-05-26T21:04:29.974Z,15.88
2019-05-26T21:07:02.737Z,15.80
2019-05-26T21:09:35.309Z,15.90
2019-05-26T21:12:08.167Z,15.93
2019-05-26T21:14:40.629Z,15.90
2019-05-26T21:17:13.404Z,15.60
2019-05-26T21:19:45.872Z,16.00
2019-05-26T21:22:18.555Z,16.55
2019-05-26T21:24:51.135Z,16.23
2019-05-26T21:27:23.667Z,15.20
2019-05-26T21:29:57.514Z,15.53
2019-05-26T21:32:31.361Z,14.70
2019-05-26T21:35:07.681Z,15.90
2019-05-26T21:37:40.484Z,16.45
2019-05-26T21:40:13.668Z,15.78
2019-05-26T21:42:46.045Z,15.08
2019-05-26T21:45:18.512Z,15.38
2019-05-26T21:47:51.079Z,44.90
2019-05-26T21:50:23.688Z,19.05
2019-05-26T21:52:56.150Z,18.05
2019-05-26T21:55:28.726Z,18.67
2019-05-26T21:58:01.278Z,19.15
2019-05-26T22:00:35.345Z,20.12
2019-05-26T22:03:08.264Z,19.62
2019-05-26T22:05:40.323Z,20.75
2019-05-26T22:08:13.005Z,21.40
2019-05-26T22:10:45.388Z,22.32
2019-05-26T22:13:17.650Z,24.12
2019-05-26T22:15:49.790Z,24.15
2019-05-26T22:18:22.424Z,25.45
2019-05-26T22:20:54.580Z,22.42
2019-05-26T22:23:26.742Z,22.87
2019-05-26T22:25:58.952Z,21.52
2019-05-26T22:28:31.304Z,23.07
2019-05-26T22:31:03.574Z,21.27
2019-05-26T22:33:35.985Z,19.55
2019-05-26T22:36:08.213Z,19.02
2019-05-26T22:38:40.439Z,17.27
2019-05-26T22:41:12.591Z,15.78
2019-05-26T22:43:44.761Z,16.77
2019-05-26T22:46:16.927Z,16.60
2019-05-26T22:48:49.288Z,17.10
2019-05-26T22:51:21.709Z,16.57
2019-05-26T22:53:54.280Z,18.80
2019-05-26T22:56:26.859Z,16.52
2019-05-26T22:58:59.140Z,15.48
2019-05-26T23:01:32.470Z,15.40
2019-05-26T23:04:05.308Z,15.35
2019-05-26T23:06:37.684Z,15.53
2019-05-26T23:09:10.774Z,15.10
2019-05-26T23:11:43.484Z,14.07
2019-05-26T23:14:16.857Z,14.85
2019-05-26T23:16:49.315Z,14.45
2019-05-26T23:19:21.894Z,13.83
2019-05-26T23:21:54.675Z,12.55
2019-05-26T23:24:27.281Z,12.07
2019-05-26T23:26:59.414Z,11.95
2019-05-26T23:29:31.502Z,11.75
2019-05-26T23:32:03.797Z,12.03
2019-05-26T23:34:36.000Z,10.45
2019-05-26T23:37:08.305Z,10.10
2019-05-26T23:39:40.483Z,9.88
2019-05-26T23:42:12.787Z,9.38
2019-05-26T23:44:46.052Z,9.03
2019-05-26T23:47:18.255Z,8.68
2019-05-26T23:49:51.564Z,8.38
2019-05-26T23:52:23.834Z,7.72
2019-05-26T23:54:56.070Z,7.67
2019-05-26T23:57:28.178Z,7.17
